Back to Top

Language: 

My Weather Underground Personal Weather Station Historical Data with Graphs...

Delerius Weather Station Historical Data
Daily Summary for October 24, 2017 Units:  Metric    English   Both
« Previous Day
Next Day »
Daily Weekly Monthly Yearly Custom
  High: Low: Average:
Temperature: 18.8 °C 11.6 °C 14.9 °C
Dew Point: 15.5 °C 10 °C 13.1 °C
Humidity: 96 % 80 % 89 %
Wind Speed: 32.2 km/h 0 km/h 13 km/h
Wind Gust: 51.5 km/h - -
Wind:- - SW
Pressure: 1014.4 hPa 1010 hPa -
Precipitation: 2.54 mm    
Historical Graphs
 
 
Tabular Data for October 24, 2017
Time Temperature Dew Point Pressure Wind Wind Speed Wind Gust Humidity Rainfall Rate (Hourly) solar Conditions
00:03 14.3 °C 12.3 °C 1014.4 hPa WSW 8 km/h 14.5 km/h 88 % 0 mm 0 W/m2
00:08 14.2 °C 12.2 °C 1014.1 hPa WSW 6.4 km/h 11.3 km/h 88 % 0 mm 0 W/m2
00:13 14.1 °C 12.2 °C 1014.1 hPa WSW 8 km/h 14.5 km/h 88 % 0 mm 0 W/m2
00:18 14.1 °C 12.2 °C 1014.1 hPa WSW 6.4 km/h 9.7 km/h 88 % 0 mm 0 W/m2
00:23 13.9 °C 11.9 °C 1014.1 hPa WSW 8 km/h 12.9 km/h 88 % 0 mm 0 W/m2
00:28 13.9 °C 11.9 °C 1014.1 hPa West 8 km/h 11.3 km/h 88 % 0 mm 0 W/m2
00:33 13.8 °C 11.8 °C 1014.1 hPa WSW 8 km/h 14.5 km/h 88 % 0 mm 0 W/m2
00:38 13.8 °C 11.8 °C 1014.1 hPa WSW 8 km/h 12.9 km/h 88 % 0 mm 0 W/m2
00:43 13.8 °C 11.8 °C 1014.1 hPa WSW 12.9 km/h 20.9 km/h 88 % 0 mm 0 W/m2
00:48 13.8 °C 11.8 °C 1014.1 hPa West 11.3 km/h 16.1 km/h 88 % 0 mm 0 W/m2
00:53 13.8 °C 11.8 °C 1014.1 hPa West 9.7 km/h 17.7 km/h 88 % 0 mm 0 W/m2
00:58 13.7 °C 11.7 °C 1014.1 hPa West 9.7 km/h 14.5 km/h 88 % 0 mm 0 W/m2
01:03 13.6 °C 11.5 °C 1014.1 hPa West 6.4 km/h 11.3 km/h 87 % 0 mm 0 W/m2
01:08 13.6 °C 11.5 °C 1014.1 hPa West 6.4 km/h 12.9 km/h 87 % 0 mm 0 W/m2
01:13 13.4 °C 11.3 °C 1014.1 hPa West 4.8 km/h 9.7 km/h 87 % 0 mm 0 W/m2
01:18 13.3 °C 11.3 °C 1014.1 hPa West 4.8 km/h 8 km/h 88 % 0 mm 0 W/m2
01:23 13.3 °C 11.3 °C 1014.1 hPa WSW 4.8 km/h 9.7 km/h 88 % 0 mm 0 W/m2
01:28 13.2 °C 11.3 °C 1014.1 hPa WSW 8 km/h 12.9 km/h 88 % 0 mm 0 W/m2
01:33 13.1 °C 11.2 °C 1014.1 hPa WSW 6.4 km/h 11.3 km/h 88 % 0 mm 0 W/m2
01:38 13.1 °C 11.2 °C 1014.1 hPa WSW 8 km/h 14.5 km/h 88 % 0 mm 0 W/m2
01:43 13 °C 11.1 °C 1014.1 hPa WSW 9.7 km/h 12.9 km/h 88 % 0 mm 0 W/m2
01:48 12.9 °C 10.9 °C 1013.8 hPa WSW 8 km/h 11.3 km/h 88 % 0 mm 0 W/m2
01:53 12.9 °C 10.9 °C 1013.8 hPa WSW 6.4 km/h 9.7 km/h 88 % 0 mm 0 W/m2
01:58 12.8 °C 10.8 °C 1013.8 hPa SW 4.8 km/h 9.7 km/h 88 % 0 mm 0 W/m2
02:03 12.8 °C 10.8 °C 1013.8 hPa SW 3.2 km/h 6.4 km/h 88 % 0 mm 0 W/m2
02:08 12.7 °C 10.6 °C 1013.8 hPa WSW 4.8 km/h 9.7 km/h 87 % 0 mm 0 W/m2
02:13 12.7 °C 10.6 °C 1013.8 hPa WSW 1.6 km/h 6.4 km/h 87 % 0 mm 0 W/m2
02:18 12.7 °C 10.6 °C 1013.8 hPa WSW 3.2 km/h 12.9 km/h 87 % 0 mm 0 W/m2
02:23 12.7 °C 10.6 °C 1013.8 hPa WSW 3.2 km/h 9.7 km/h 87 % 0 mm 0 W/m2
02:24 12.6 °C 10.5 °C 1013.8 hPa WSW 3.2 km/h 9.7 km/h 87 % 0 mm 0 W/m2
02:29 12.6 °C 10.5 °C 1014.1 hPa Calm   3.2 km/h 87 % 0 mm 0 W/m2
02:34 12.6 °C 10.5 °C 1014.1 hPa West 3.2 km/h 8 km/h 87 % 0 mm 0 W/m2
02:44 12.4 °C 10.3 °C 1014.1 hPa Calm     87 % 0 mm 0 W/m2
02:49 12.3 °C 10.2 °C 1014.1 hPa Calm   1.6 km/h 87 % 0 mm 0 W/m2
02:54 12.2 °C 10.3 °C 1014.1 hPa Calm     88 % 0 mm 0 W/m2
02:59 12.1 °C 10.2 °C 1013.8 hPa Calm   1.6 km/h 88 % 0 mm 0 W/m2
03:04 11.9 °C 10 °C 1013.8 hPa Calm   3.2 km/h 88 % 0 mm 0 W/m2
03:09 11.8 °C 10.1 °C 1014.1 hPa East 1.6 km/h 6.4 km/h 89 % 0 mm 0 W/m2
03:14 11.8 °C 10.1 °C 1014.1 hPa South 1.6 km/h 6.4 km/h 89 % 0 mm 0 W/m2
03:19 11.7 °C 10.1 °C 1014.1 hPa Calm   3.2 km/h 90 % 0 mm 0 W/m2
03:24 11.7 °C 10.1 °C 1014.1 hPa Calm     90 % 0 mm 0 W/m2
03:29 11.6 °C 10 °C 1014.4 hPa SSW 1.6 km/h 6.4 km/h 90 % 0 mm 0 W/m2
03:34 11.6 °C 10 °C 1014.1 hPa Calm   3.2 km/h 90 % 0 mm 0 W/m2
03:39 11.6 °C 10.2 °C 1014.1 hPa SW 1.6 km/h 6.4 km/h 91 % 0 mm 0 W/m2
03:44 11.6 °C 10 °C 1014.1 hPa Calm     90 % 0 mm 0 W/m2
03:49 11.6 °C 10.2 °C 1013.8 hPa SSW 1.6 km/h 8 km/h 91 % 0 mm 0 W/m2
03:54 11.7 °C 10.3 °C 1014.1 hPa Calm   4.8 km/h 91 % 0 mm 0 W/m2
03:59 11.8 °C 10.4 °C 1013.8 hPa ESE 8 km/h 11.3 km/h 91 % 0 mm 0 W/m2
04:04 11.9 °C 10.5 °C 1013.8 hPa East 6.4 km/h 9.7 km/h 91 % 0 mm 0 W/m2
04:09 12 °C 10.6 °C 1013.8 hPa East 6.4 km/h 12.9 km/h 91 % 0 mm 0 W/m2
04:15 12 °C 10.6 °C 1013.4 hPa ESE 8 km/h 12.9 km/h 91 % 0 mm 0 W/m2
04:20 12 °C 10.6 °C 1013.4 hPa SE 8 km/h 12.9 km/h 91 % 0 mm 0 W/m2
04:23 12 °C 10.6 °C 1013.4 hPa SE 8 km/h 11.3 km/h 91 % 0 mm 0 W/m2
04:31 12 °C 10.6 °C 1013.1 hPa SE 8 km/h 9.7 km/h 91 % 0 mm 0 W/m2
04:36 12 °C 10.6 °C 1013.1 hPa ESE 9.7 km/h 11.3 km/h 91 % 0 mm 0 W/m2
04:41 12 °C 10.6 °C 1013.1 hPa SE 9.7 km/h 12.9 km/h 91 % 0 mm 0 W/m2
04:46 12 °C 10.6 °C 1013.1 hPa ESE 4.8 km/h 8 km/h 91 % 0 mm 0 W/m2
04:51 11.9 °C 10.5 °C 1013.1 hPa SE 3.2 km/h 8 km/h 91 % 0 mm 0 W/m2
04:56 11.9 °C 10.5 °C 1013.1 hPa SE 6.4 km/h 8 km/h 91 % 0 mm 0 W/m2
05:01 11.9 °C 10.5 °C 1013.1 hPa SE 1.6 km/h 3.2 km/h 91 % 0 mm 0 W/m2
05:06 11.8 °C 10.4 °C 1012.8 hPa Calm   3.2 km/h 91 % 0 mm 0 W/m2
05:11 11.7 °C 10.3 °C 1012.4 hPa Calm   3.2 km/h 91 % 0 mm 0 W/m2
05:16 11.6 °C 10.3 °C 1012.8 hPa SSE 1.6 km/h 6.4 km/h 92 % 0 mm 0 W/m2
05:21 11.6 °C 10.3 °C 1013.1 hPa SW 3.2 km/h 11.3 km/h 92 % 0 mm 0 W/m2
05:26 11.7 °C 10.4 °C 1013.1 hPa SW 3.2 km/h 9.7 km/h 92 % 0 mm 0 W/m2
05:31 11.8 °C 10.6 °C 1013.1 hPa SSW 9.7 km/h 20.9 km/h 92 % 0 mm 0 W/m2
05:32 11.8 °C 10.6 °C 1012.8 hPa SSW 14.5 km/h 20.9 km/h 92 % 0 mm 0 W/m2
05:37 12.1 °C 10.8 °C 1013.1 hPa SSW 14.5 km/h 20.9 km/h 92 % 0 mm 0 W/m2
05:42 12.3 °C 11.1 °C 1013.4 hPa SSW 16.1 km/h 22.5 km/h 92 % 0 mm 0 W/m2
05:47 12.5 °C 11.1 °C 1013.1 hPa SSW 8 km/h 12.9 km/h 91 % 0 mm 0 W/m2
05:52 12.6 °C 11 °C 1013.1 hPa SSW 6.4 km/h 11.3 km/h 90 % 0 mm 0 W/m2
05:57 12.6 °C 11 °C 1013.1 hPa South 8 km/h 12.9 km/h 90 % 0 mm 0 W/m2
06:02 12.6 °C 11 °C 1013.1 hPa South 3.2 km/h 9.7 km/h 90 % 0 mm 0 W/m2
06:07 12.6 °C 11 °C 1013.1 hPa Calm   3.2 km/h 90 % 0 mm 0 W/m2
06:12 12.7 °C 11.1 °C 1013.1 hPa SW 1.6 km/h 8 km/h 90 % 0 mm 0 W/m2
06:17 12.7 °C 11.1 °C 1013.1 hPa Calm   6.4 km/h 90 % 0 mm 0 W/m2
06:21 12.7 °C 11.1 °C 1013.1 hPa Calm   6.4 km/h 90 % 0 mm 0 W/m2
06:27 12.7 °C 11.1 °C 1012.8 hPa Calm   1.6 km/h 90 % 0 mm 0 W/m2
06:32 12.7 °C 11.1 °C 1012.8 hPa Calm   6.4 km/h 90 % 0 mm 0 W/m2
06:37 12.6 °C 11 °C 1012.8 hPa ESE 1.6 km/h 9.7 km/h 90 % 0.25 mm 0 W/m2
06:42 12.6 °C 11.2 °C 1012.4 hPa SE 1.6 km/h 6.4 km/h 91 % 0.25 mm 0 W/m2
06:47 12.6 °C 11.2 °C 1012.4 hPa SE 1.6 km/h 6.4 km/h 91 % 0.25 mm 0 W/m2
06:52 12.6 °C 11.2 °C 1012.1 hPa SSW 6.4 km/h 12.9 km/h 91 % 0.25 mm 0 W/m2
06:57 12.6 °C 11.2 °C 1012.1 hPa SSW 4.8 km/h 11.3 km/h 91 % 0.25 mm 0 W/m2
07:02 12.6 °C 11.2 °C 1011.7 hPa SW 3.2 km/h 8 km/h 91 % 0.25 mm 0 W/m2
07:07 12.6 °C 11.3 °C 1011.7 hPa SSW 8 km/h 12.9 km/h 92 % 0.25 mm 0 W/m2
07:12 12.6 °C 11.3 °C 1011.7 hPa SW 9.7 km/h 16.1 km/h 92 % 0.25 mm 0 W/m2
07:17 12.6 °C 11.3 °C 1011.7 hPa SSW 6.4 km/h 14.5 km/h 92 % 0.25 mm 0 W/m2
07:22 12.6 °C 11.3 °C 1012.1 hPa SW 8 km/h 11.3 km/h 92 % 0.25 mm 0 W/m2
07:27 12.6 °C 11.3 °C 1011.7 hPa South 9.7 km/h 12.9 km/h 92 % 0.51 mm 0 W/m2
07:32 12.6 °C 11.5 °C 1011.7 hPa SSW 11.3 km/h 19.3 km/h 93 % 0.76 mm 0 W/m2
07:37 12.5 °C 11.4 °C 1011.4 hPa South 11.3 km/h 20.9 km/h 93 % 0.76 mm 0 W/m2
07:42 12.4 °C 11.3 °C 1011.4 hPa South 9.7 km/h 16.1 km/h 93 % 0.76 mm 0 W/m2
07:47 12.4 °C 11.3 °C 1011.4 hPa South 12.9 km/h 24.1 km/h 93 % 0.76 mm 0 W/m2
07:52 12.4 °C 11.4 °C 1011.1 hPa SSW 11.3 km/h 20.9 km/h 94 % 0.76 mm 0 W/m2
07:57 12.4 °C 11.4 °C 1011.1 hPa South 11.3 km/h 16.1 km/h 94 % 0.76 mm 0 W/m2
08:02 12.4 °C 11.4 °C 1011.1 hPa South 12.9 km/h 25.7 km/h 94 % 0.76 mm 0 W/m2
08:07 12.5 °C 11.6 °C 1011.1 hPa SSW 14.5 km/h 20.9 km/h 94 % 0.76 mm 0 W/m2
08:12 12.5 °C 11.6 °C 1011.1 hPa SSW 14.5 km/h 24.1 km/h 94 % 1.27 mm 0 W/m2
08:17 12.5 °C 11.6 °C 1011.4 hPa South 12.9 km/h 19.3 km/h 94 % 1.27 mm 0 W/m2
08:22 12.6 °C 11.7 °C 1011.4 hPa SSW 14.5 km/h 25.7 km/h 94 % 1.52 mm 7 W/m2
08:33 12.7 °C 11.9 °C 1011.1 hPa SSW 11.3 km/h 16.1 km/h 95 % 1.52 mm 11 W/m2
08:38 12.7 °C 11.9 °C 1011.1 hPa SW 14.5 km/h 20.9 km/h 95 % 1.27 mm 19 W/m2
08:43 12.8 °C 12 °C 1011.1 hPa SW 11.3 km/h 19.3 km/h 95 % 1.27 mm 23 W/m2
08:48 12.9 °C 12.1 °C 1011.1 hPa SW 14.5 km/h 20.9 km/h 95 % 1.27 mm 28 W/m2
08:53 13.1 °C 12.3 °C 1011.1 hPa SW 11.3 km/h 17.7 km/h 95 % 1.27 mm 18 W/m2
08:58 13.2 °C 12.4 °C 1011.1 hPa SW 11.3 km/h 17.7 km/h 95 % 1.27 mm 16 W/m2
09:03 13.2 °C 12.4 °C 1011.1 hPa SW 9.7 km/h 14.5 km/h 95 % 1.27 mm 28 W/m2
09:08 13.4 °C 12.8 °C 1010.7 hPa SW 12.9 km/h 17.7 km/h 96 % 1.02 mm 35 W/m2
09:13 13.6 °C 12.8 °C 1010.7 hPa SSW 12.9 km/h 22.5 km/h 95 % 0.76 mm 37 W/m2
09:18 13.7 °C 12.9 °C 1010.7 hPa SSW 12.9 km/h 19.3 km/h 95 % 0.76 mm 42 W/m2
09:23 13.8 °C 13 °C 1010.7 hPa SW 11.3 km/h 20.9 km/h 95 % 0.25 mm 35 W/m2
09:28 14 °C 13.2 °C 1010.7 hPa SW 11.3 km/h 16.1 km/h 95 % 0.25 mm 30 W/m2
09:33 14.2 °C 13.4 °C 1010.7 hPa SW 12.9 km/h 17.7 km/h 95 % 0 mm 25 W/m2
09:38 14.3 °C 13.5 °C 1010.7 hPa SSW 12.9 km/h 22.5 km/h 95 % 0.51 mm 28 W/m2
09:43 14.6 °C 13.9 °C 1010.7 hPa SSW 14.5 km/h 22.5 km/h 96 % 0.51 mm 25 W/m2
09:48 14.8 °C 14.2 °C 1010.7 hPa SW 17.7 km/h 24.1 km/h 96 % 0.51 mm 25 W/m2
09:53 15 °C 14.4 °C 1010.7 hPa SW 16.1 km/h 25.7 km/h 96 % 0.51 mm 30 W/m2
09:58 15.1 °C 14.4 °C 1010.7 hPa SW 19.3 km/h 30.6 km/h 96 % 0.51 mm 30 W/m2
10:03 15.2 °C 14.4 °C 1010.7 hPa SW 19.3 km/h 30.6 km/h 95 % 0.51 mm 21 W/m2
10:08 15.3 °C 14.5 °C 1010.7 hPa SW 14.5 km/h 20.9 km/h 95 % 0.51 mm 18 W/m2
10:13 15.4 °C 14.6 °C 1010.7 hPa SW 20.9 km/h 32.2 km/h 95 % 0.51 mm 18 W/m2
10:18 15.6 °C 14.6 °C 1010.7 hPa SW 16.1 km/h 25.7 km/h 94 % 0.51 mm 21 W/m2
10:23 15.6 °C 14.6 °C 1010.4 hPa SW 14.5 km/h 22.5 km/h 94 % 0.51 mm 44 W/m2
10:28 15.7 °C 14.7 °C 1010.4 hPa SSW 20.9 km/h 32.2 km/h 94 % 0.51 mm 58 W/m2
10:34 15.8 °C 14.8 °C 1010.4 hPa SW 20.9 km/h 32.2 km/h 94 % 0.25 mm 90 W/m2
10:39 15.9 °C 14.8 °C 1010.4 hPa SW 25.7 km/h 35.4 km/h 93 % 0 mm 125 W/m2
10:40 15.9 °C 14.9 °C 1010.4 hPa SW 22.5 km/h 35.4 km/h 94 % 0 mm 84 W/m2
10:45 16 °C 14.9 °C 1010.4 hPa SW 19.3 km/h 32.2 km/h 93 % 0 mm 186 W/m2
10:50 16.2 °C 15.1 °C 1010 hPa SW 22.5 km/h 30.6 km/h 93 % 0 mm 429 W/m2
10:55 16.4 °C 15.3 °C 1010 hPa SW 22.5 km/h 32.2 km/h 93 % 0 mm 178 W/m2
11:00 16.6 °C 15.4 °C 1010 hPa SW 20.9 km/h 35.4 km/h 93 % 0 mm 204 W/m2
11:05 16.7 °C 15.4 °C 1010 hPa SW 27.4 km/h 38.6 km/h 92 % 0 mm 178 W/m2
11:10 16.8 °C 15.3 °C 1010 hPa WSW 27.4 km/h 43.5 km/h 91 % 0 mm 153 W/m2
11:15 16.9 °C 15.4 °C 1010 hPa WSW 20.9 km/h 33.8 km/h 91 % 0 mm 70 W/m2
11:20 16.9 °C 15.4 °C 1010 hPa WSW 25.7 km/h 37 km/h 91 % 0 mm 211 W/m2
11:25 16.9 °C 15.2 °C 1010 hPa WSW 25.7 km/h 37 km/h 90 % 0 mm 104 W/m2
11:30 17.1 °C 15.4 °C 1010 hPa WSW 27.4 km/h 40.2 km/h 90 % 0 mm 123 W/m2
11:35 17.2 °C 15.4 °C 1010 hPa WSW 24.1 km/h 40.2 km/h 89 % 0 mm 158 W/m2
11:40 17.3 °C 15.4 °C 1010 hPa WSW 30.6 km/h 51.5 km/h 89 % 0 mm 158 W/m2
11:45 17.5 °C 15.5 °C 1010 hPa WSW 32.2 km/h 46.7 km/h 88 % 0 mm 151 W/m2
11:50 17.6 °C 15.4 °C 1010 hPa WSW 32.2 km/h 45.1 km/h 87 % 0 mm 123 W/m2
11:55 17.7 °C 15.3 °C 1010 hPa WSW 27.4 km/h 41.8 km/h 86 % 0 mm 241 W/m2
12:00 17.8 °C 15.4 °C 1010 hPa WSW 22.5 km/h 40.2 km/h 86 % 0 mm 179 W/m2
12:05 17.8 °C 15.4 °C 1010 hPa WSW 22.5 km/h 33.8 km/h 86 % 0 mm 105 W/m2
12:10 17.8 °C 15.2 °C 1010.4 hPa WSW 24.1 km/h 38.6 km/h 85 % 0 mm 81 W/m2
12:15 17.7 °C 15.2 °C 1010 hPa WSW 22.5 km/h 38.6 km/h 85 % 0 mm 153 W/m2
12:20 17.7 °C 15.2 °C 1010.4 hPa WSW 27.4 km/h 41.8 km/h 85 % 0 mm 149 W/m2
12:25 17.8 °C 15.2 °C 1010 hPa WSW 30.6 km/h 43.5 km/h 85 % 0 mm 148 W/m2
12:30 17.8 °C 15.2 °C 1010 hPa WSW 29 km/h 48.3 km/h 85 % 0 mm 260 W/m2
12:35 17.9 °C 15.2 °C 1010.4 hPa WSW 29 km/h 43.5 km/h 84 % 0 mm 123 W/m2
12:37 17.9 °C 15.2 °C 1010 hPa WSW 29 km/h 38.6 km/h 84 % 0 mm 141 W/m2
12:42 17.9 °C 15.2 °C 1010 hPa WSW 29 km/h 41.8 km/h 84 % 0 mm 130 W/m2
12:47 17.9 °C 15.3 °C 1010 hPa WSW 20.9 km/h 38.6 km/h 85 % 0 mm 123 W/m2
12:52 17.9 °C 15.2 °C 1010.4 hPa WSW 24.1 km/h 41.8 km/h 84 % 0 mm 109 W/m2
12:57 17.9 °C 15.2 °C 1010 hPa WSW 29 km/h 45.1 km/h 84 % 0 mm 148 W/m2
13:02 18 °C 15.3 °C 1010.4 hPa WSW 27.4 km/h 45.1 km/h 84 % 0 mm 139 W/m2
13:07 18.1 °C 15.2 °C 1010.4 hPa West 25.7 km/h 38.6 km/h 83 % 0 mm 285 W/m2
13:12 18.3 °C 15.2 °C 1010 hPa West 32.2 km/h 45.1 km/h 82 % 0 mm 359 W/m2
13:17 18.4 °C 15.3 °C 1010.4 hPa WSW 29 km/h 49.9 km/h 82 % 0 mm 325 W/m2
13:22 18.4 °C 15.1 °C 1010.4 hPa WSW 29 km/h 43.5 km/h 81 % 0 mm 232 W/m2
13:27 18.6 °C 15.3 °C 1010.4 hPa WSW 32.2 km/h 41.8 km/h 81 % 0 mm 417 W/m2
13:32 18.7 °C 15.4 °C 1010.4 hPa WSW 29 km/h 46.7 km/h 81 % 0 mm 408 W/m2
13:37 18.8 °C 15.3 °C 1010 hPa WSW 27.4 km/h 46.7 km/h 80 % 0 mm 234 W/m2
13:42 18.8 °C 15.3 °C 1010.4 hPa WSW 27.4 km/h 43.5 km/h 80 % 0 mm 255 W/m2
13:47 18.7 °C 15.2 °C 1010.4 hPa WSW 25.7 km/h 43.5 km/h 80 % 0 mm 381 W/m2
13:52 18.6 °C 15.1 °C 1010.4 hPa WSW 32.2 km/h 49.9 km/h 80 % 0 mm 199 W/m2
13:57 18.4 °C 15.1 °C 1010.4 hPa WSW 24.1 km/h 41.8 km/h 81 % 0 mm 169 W/m2
14:02 18.3 °C 15.2 °C 1010.4 hPa WSW 22.5 km/h 33.8 km/h 82 % 0 mm 206 W/m2
14:07 18.3 °C 15.2 °C 1010.4 hPa West 22.5 km/h 37 km/h 82 % 0 mm 176 W/m2
14:12 18.2 °C 15.1 °C 1010.7 hPa WSW 29 km/h 49.9 km/h 82 % 0 mm 176 W/m2
14:17 17.9 °C 15.2 °C 1010.7 hPa WSW 29 km/h 45.1 km/h 84 % 0 mm 192 W/m2
14:22 17.8 °C 15.2 °C 1011.1 hPa West 24.1 km/h 38.6 km/h 85 % 0 mm 176 W/m2
14:27 17.7 °C 15.2 °C 1011.1 hPa WSW 30.6 km/h 38.6 km/h 85 % 0 mm 165 W/m2
14:32 17.3 °C 15.3 °C 1011.1 hPa WSW 24.1 km/h 33.8 km/h 88 % 0 mm 155 W/m2
14:37 17.1 °C 15.1 °C 1011.4 hPa WSW 30.6 km/h 43.5 km/h 88 % 0 mm 141 W/m2
14:42 17 °C 14.8 °C 1011.4 hPa West 24.1 km/h 38.6 km/h 87 % 0 mm 192 W/m2
14:47 17.1 °C 14.7 °C 1011.4 hPa West 27.4 km/h 40.2 km/h 86 % 0 mm 178 W/m2
14:51 17.2 °C 14.8 °C 1011.4 hPa WSW 20.9 km/h 30.6 km/h 86 % 0 mm 345 W/m2
14:56 17.3 °C 14.8 °C 1011.4 hPa West 20.9 km/h 40.2 km/h 85 % 0 mm 186 W/m2
15:01 17.3 °C 14.8 °C 1011.4 hPa WSW 25.7 km/h 40.2 km/h 85 % 0 mm 195 W/m2
15:06 17.4 °C 14.8 °C 1011.4 hPa West 19.3 km/h 35.4 km/h 85 % 0 mm 292 W/m2
15:11 17.5 °C 14.9 °C 1011.7 hPa WSW 22.5 km/h 32.2 km/h 85 % 0 mm 207 W/m2
15:16 17.6 °C 14.9 °C 1011.7 hPa West 22.5 km/h 32.2 km/h 84 % 0 mm 243 W/m2
15:17 17.6 °C 14.9 °C 1011.7 hPa WSW 22.5 km/h 32.2 km/h 84 % 0 mm 243 W/m2
15:22 17.5 °C 14.8 °C 1011.4 hPa WSW 19.3 km/h 30.6 km/h 84 % 0 mm 113 W/m2
15:27 17.4 °C 14.7 °C 1011.1 hPa WSW 19.3 km/h 32.2 km/h 84 % 0 mm 127 W/m2
15:32 17.4 °C 14.7 °C 1011.4 hPa WSW 20.9 km/h 41.8 km/h 84 % 0 mm 98 W/m2
15:37 17.4 °C 14.7 °C 1011.4 hPa WSW 22.5 km/h 41.8 km/h 84 % 0 mm 250 W/m2
15:42 17.5 °C 14.6 °C 1011.4 hPa WSW 17.7 km/h 30.6 km/h 83 % 0 mm 67 W/m2
15:47 17.4 °C 14.5 °C 1011.7 hPa WSW 27.4 km/h 35.4 km/h 83 % 0 mm 83 W/m2
15:52 17.4 °C 14.5 °C 1011.7 hPa WSW 19.3 km/h 33.8 km/h 83 % 0 mm 76 W/m2
15:57 17.3 °C 14.4 °C 1011.7 hPa WSW 20.9 km/h 35.4 km/h 83 % 0 mm 77 W/m2
16:02 17.3 °C 14.4 °C 1011.7 hPa WSW 19.3 km/h 32.2 km/h 83 % 0 mm 76 W/m2
16:07 17.2 °C 14.1 °C 1011.7 hPa WSW 24.1 km/h 45.1 km/h 82 % 0 mm 62 W/m2
16:12 17.2 °C 14.1 °C 1011.4 hPa WSW 17.7 km/h 32.2 km/h 82 % 0 mm 125 W/m2
16:17 17.1 °C 14 °C 1011.4 hPa WSW 17.7 km/h 30.6 km/h 82 % 0 mm 132 W/m2
16:22 17.1 °C 14.2 °C 1011.4 hPa WSW 17.7 km/h 24.1 km/h 83 % 0 mm 63 W/m2
16:27 17.1 °C 14.2 °C 1011.7 hPa WSW 17.7 km/h 24.1 km/h 83 % 0 mm 47 W/m2
16:32 17 °C 14.1 °C 1012.1 hPa WSW 17.7 km/h 32.2 km/h 83 % 0 mm 72 W/m2
16:37 17 °C 14.1 °C 1012.1 hPa WSW 16.1 km/h 25.7 km/h 83 % 0 mm 58 W/m2
16:42 17 °C 13.9 °C 1012.1 hPa WSW 17.7 km/h 29 km/h 82 % 0 mm 46 W/m2
16:47 17 °C 13.9 °C 1012.1 hPa WSW 17.7 km/h 25.7 km/h 82 % 0 mm 32 W/m2
16:52 16.9 °C 13.6 °C 1012.1 hPa WSW 20.9 km/h 37 km/h 81 % 0 mm 30 W/m2
16:57 16.9 °C 13.6 °C 1012.1 hPa WSW 20.9 km/h 30.6 km/h 81 % 0 mm 28 W/m2
17:03 16.8 °C 13.5 °C 1012.4 hPa WSW 20.9 km/h 33.8 km/h 81 % 0 mm 23 W/m2
17:07 16.8 °C 13.7 °C 1012.4 hPa WSW 20.9 km/h 30.6 km/h 82 % 0 mm 23 W/m2
17:13 16.7 °C 13.6 °C 1012.4 hPa West 14.5 km/h 24.1 km/h 82 % 0 mm 33 W/m2
17:18 16.7 °C 13.8 °C 1012.4 hPa WSW 12.9 km/h 20.9 km/h 83 % 0 mm 25 W/m2
17:23 16.6 °C 13.7 °C 1012.4 hPa WSW 9.7 km/h 14.5 km/h 83 % 0 mm 18 W/m2
17:28 16.6 °C 13.7 °C 1012.4 hPa West 11.3 km/h 20.9 km/h 83 % 0 mm 16 W/m2
17:33 16.5 °C 13.6 °C 1012.8 hPa West 11.3 km/h 19.3 km/h 83 % 0 mm 11 W/m2
17:38 16.4 °C 13.3 °C 1012.8 hPa WSW 14.5 km/h 19.3 km/h 82 % 0 mm 9 W/m2
17:43 16.4 °C 13.1 °C 1012.8 hPa WSW 12.9 km/h 19.3 km/h 81 % 0 mm 7 W/m2
17:48 16.4 °C 13.1 °C 1012.8 hPa WSW 14.5 km/h 30.6 km/h 81 % 0 mm 0 W/m2
17:53 16.3 °C 13.1 °C 1012.8 hPa WSW 12.9 km/h 24.1 km/h 81 % 0 mm 0 W/m2
17:58 16.3 °C 13.2 °C 1012.8 hPa WSW 12.9 km/h 20.9 km/h 82 % 0 mm 0 W/m2
18:03 16.3 °C 13.2 °C 1012.8 hPa WSW 12.9 km/h 19.3 km/h 82 % 0 mm 0 W/m2
18:08 16.3 °C 13.2 °C 1012.8 hPa WSW 6.4 km/h 11.3 km/h 82 % 0 mm 0 W/m2
18:13 16.2 °C 13.1 °C 1012.8 hPa SW 11.3 km/h 14.5 km/h 82 % 0 mm 0 W/m2
18:18 16.1 °C 13.2 °C 1012.8 hPa WSW 8 km/h 12.9 km/h 83 % 0 mm 0 W/m2
18:23 16.1 °C 13.2 °C 1012.8 hPa SW 9.7 km/h 16.1 km/h 83 % 0 mm 0 W/m2
18:28 16.1 °C 13.2 °C 1012.8 hPa WSW 8 km/h 12.9 km/h 83 % 0 mm 0 W/m2
18:33 16.1 °C 13.4 °C 1012.8 hPa WSW 9.7 km/h 16.1 km/h 84 % 0 mm 0 W/m2
18:38 16.1 °C 13.4 °C 1012.8 hPa SW 11.3 km/h 16.1 km/h 84 % 0 mm 0 W/m2
18:43 16.1 °C 13.6 °C 1012.4 hPa SSW 12.9 km/h 17.7 km/h 85 % 0 mm 0 W/m2
18:48 16.1 °C 13.6 °C 1012.4 hPa SSW 12.9 km/h 20.9 km/h 85 % 0 mm 0 W/m2
18:53 16 °C 13.7 °C 1012.8 hPa SW 9.7 km/h 19.3 km/h 86 % 0 mm 0 W/m2
18:58 15.9 °C 13.7 °C 1012.4 hPa SW 9.7 km/h 16.1 km/h 87 % 0 mm 0 W/m2
19:03 15.8 °C 13.7 °C 1012.8 hPa SW 8 km/h 12.9 km/h 87 % 0 mm 0 W/m2
19:08 15.7 °C 13.7 °C 1012.8 hPa SW 9.7 km/h 16.1 km/h 88 % 0 mm 0 W/m2
19:13 15.7 °C 13.9 °C 1012.4 hPa SW 3.2 km/h 9.7 km/h 89 % 0 mm 0 W/m2
19:18 15.6 °C 13.8 °C 1012.4 hPa WSW 3.2 km/h 6.4 km/h 89 % 0 mm 0 W/m2
19:23 15.6 °C 13.8 °C 1012.4 hPa Calm   1.6 km/h 89 % 0 mm 0 W/m2
19:28 15.5 °C 13.9 °C 1012.4 hPa Calm     90 % 0 mm 0 W/m2
19:33 15.5 °C 13.9 °C 1012.4 hPa Calm   1.6 km/h 90 % 0 mm 0 W/m2
19:38 15.4 °C 13.8 °C 1012.1 hPa South 1.6 km/h 4.8 km/h 90 % 0 mm 0 W/m2
19:43 15.4 °C 13.8 °C 1012.1 hPa SSW 1.6 km/h 3.2 km/h 90 % 0 mm 0 W/m2
19:48 15.4 °C 13.9 °C 1012.1 hPa SSW 1.6 km/h 4.8 km/h 91 % 0 mm 0 W/m2
19:53 15.3 °C 13.8 °C 1011.7 hPa Calm     91 % 0 mm 0 W/m2
19:58 15.3 °C 13.8 °C 1012.1 hPa SSW 3.2 km/h 6.4 km/h 91 % 0 mm 0 W/m2
20:03 15.3 °C 13.8 °C 1012.1 hPa SSW 4.8 km/h 9.7 km/h 91 % 0 mm 0 W/m2
20:08 15.3 °C 13.8 °C 1011.7 hPa SW 4.8 km/h 8 km/h 91 % 0 mm 0 W/m2
20:13 15.3 °C 13.8 °C 1011.7 hPa SW 8 km/h 12.9 km/h 91 % 0 mm 0 W/m2
20:18 15.3 °C 13.8 °C 1011.7 hPa SSW 11.3 km/h 14.5 km/h 91 % 0 mm 0 W/m2
20:23 15.3 °C 13.8 °C 1011.7 hPa SSW 9.7 km/h 17.7 km/h 91 % 0 mm 0 W/m2
20:29 15.4 °C 13.9 °C 1011.7 hPa SW 11.3 km/h 16.1 km/h 91 % 0 mm 0 W/m2
20:34 15.4 °C 13.8 °C 1011.4 hPa SSW 8 km/h 12.9 km/h 90 % 0 mm 0 W/m2
20:39 15.4 °C 13.8 °C 1011.7 hPa SSW 9.7 km/h 12.9 km/h 90 % 0 mm 0 W/m2
20:44 15.4 °C 13.8 °C 1011.4 hPa SW 11.3 km/h 17.7 km/h 90 % 0 mm 0 W/m2
20:49 15.4 °C 13.8 °C 1011.4 hPa SSW 11.3 km/h 17.7 km/h 90 % 0 mm 0 W/m2
20:54 15.4 °C 13.8 °C 1011.4 hPa SSW 11.3 km/h 14.5 km/h 90 % 0 mm 0 W/m2
20:59 15.4 °C 13.8 °C 1011.1 hPa SSW 8 km/h 12.9 km/h 90 % 0 mm 0 W/m2
21:04 15.3 °C 13.7 °C 1011.1 hPa SSW 6.4 km/h 12.9 km/h 90 % 0 mm 0 W/m2
21:09 15.3 °C 13.8 °C 1011.1 hPa SW 8 km/h 14.5 km/h 91 % 0 mm 0 W/m2
21:14 15.3 °C 13.8 °C 1011.1 hPa SSW 8 km/h 11.3 km/h 91 % 0 mm 0 W/m2
21:19 15.3 °C 13.8 °C 1011.1 hPa SSW 8 km/h 12.9 km/h 91 % 0 mm 0 W/m2
21:24 15.3 °C 13.8 °C 1011.1 hPa SW 8 km/h 14.5 km/h 91 % 0 mm 0 W/m2
21:29 15.2 °C 13.7 °C 1011.1 hPa SSW 8 km/h 11.3 km/h 91 % 0 mm 0 W/m2
21:34 15.2 °C 13.7 °C 1011.1 hPa SSW 9.7 km/h 14.5 km/h 91 % 0 mm 0 W/m2
21:39 15.2 °C 13.7 °C 1011.1 hPa SSW 9.7 km/h 14.5 km/h 91 % 0 mm 0 W/m2
21:44 15.2 °C 13.7 °C 1011.1 hPa SSW 8 km/h 11.3 km/h 91 % 0 mm 0 W/m2
21:49 15.1 °C 13.8 °C 1011.1 hPa SSW 8 km/h 12.9 km/h 92 % 0 mm 0 W/m2
21:54 15.1 °C 13.8 °C 1011.1 hPa SSW 6.4 km/h 12.9 km/h 92 % 0 mm 0 W/m2
21:59 15.1 °C 13.8 °C 1011.1 hPa SSW 6.4 km/h 9.7 km/h 92 % 0 mm 0 W/m2
22:04 15 °C 13.7 °C 1010.7 hPa South 6.4 km/h 11.3 km/h 92 % 0 mm 0 W/m2
22:09 15 °C 13.7 °C 1010.7 hPa South 8 km/h 14.5 km/h 92 % 0 mm 0 W/m2
22:14 15 °C 13.9 °C 1010.4 hPa South 9.7 km/h 16.1 km/h 93 % 0 mm 0 W/m2
22:19 15.1 °C 14 °C 1010.7 hPa SSW 9.7 km/h 16.1 km/h 93 % 0 mm 0 W/m2
22:24 15.1 °C 14 °C 1010.4 hPa SSW 11.3 km/h 16.1 km/h 93 % 0 mm 0 W/m2
22:29 15.1 °C 14 °C 1010.4 hPa SW 12.9 km/h 16.1 km/h 93 % 0 mm 0 W/m2
22:34 15.2 °C 14.2 °C 1010.4 hPa SW 14.5 km/h 25.7 km/h 94 % 0 mm 0 W/m2
22:39 15.3 °C 14.2 °C 1010.4 hPa SSW 16.1 km/h 25.7 km/h 93 % 0 mm 0 W/m2
22:45 15.5 °C 14.4 °C 1010.4 hPa SW 20.9 km/h 35.4 km/h 93 % 0 mm 0 W/m2
22:50 15.6 °C 14.3 °C 1010.4 hPa SSW 12.9 km/h 20.9 km/h 92 % 0 mm 0 W/m2
22:55 15.7 °C 14.4 °C 1010.4 hPa SW 17.7 km/h 30.6 km/h 92 % 0 mm 0 W/m2
23:00 15.8 °C 14.3 °C 1010.4 hPa SW 17.7 km/h 25.7 km/h 91 % 0 mm 0 W/m2
23:05 15.9 °C 14.3 °C 1010 hPa SW 14.5 km/h 22.5 km/h 90 % 0 mm 0 W/m2
23:10 15.9 °C 14.3 °C 1010.4 hPa SSW 12.9 km/h 20.9 km/h 90 % 0 mm 0 W/m2
23:15 16 °C 14.2 °C 1010.4 hPa SW 19.3 km/h 30.6 km/h 89 % 0 mm 0 W/m2
23:20 16.1 °C 14.3 °C 1010 hPa SW 19.3 km/h 30.6 km/h 89 % 0 mm 0 W/m2
23:25 16.2 °C 14.2 °C 1010 hPa SW 19.3 km/h 29 km/h 88 % 0 mm 0 W/m2
23:30 16.2 °C 14.2 °C 1010 hPa SSW 24.1 km/h 40.2 km/h 88 % 0 mm 0 W/m2
23:35 16.2 °C 14.2 °C 1010 hPa SW 16.1 km/h 25.7 km/h 88 % 0 mm 0 W/m2
23:40 16.2 °C 14.2 °C 1010 hPa SW 19.3 km/h 32.2 km/h 88 % 0 mm 0 W/m2
23:45 16.2 °C 14.1 °C 1010 hPa SSW 19.3 km/h 30.6 km/h 87 % 0 mm 0 W/m2
23:50 16.2 °C 14.1 °C 1010 hPa SW 19.3 km/h 38.6 km/h 87 % 0 mm 0 W/m2
23:55 16.2 °C 14.1 °C 1010 hPa SW 20.9 km/h 30.6 km/h 87 % 0 mm 0 W/m2
Delerius-Weather
Compliments of Weather Underground - 2.25 mb

Data updates at regular intervals.